createdAt,value
2023-07-08T00:00:49.233Z,2.22
2023-07-08T00:03:19.023Z,2.00
2023-07-08T00:05:48.107Z,2.35
2023-07-08T00:08:16.570Z,2.10
2023-07-08T00:10:43.948Z,2.20
2023-07-08T00:13:12.019Z,2.40
2023-07-08T00:15:40.920Z,2.25
2023-07-08T00:18:14.599Z,2.17
2023-07-08T00:20:47.987Z,2.45
2023-07-08T00:23:23.163Z,2.30
2023-07-08T00:25:51.168Z,2.10
2023-07-08T00:28:22.735Z,2.28
2023-07-08T00:30:50.995Z,2.15
2023-07-08T00:33:18.389Z,2.03
2023-07-08T00:35:47.330Z,2.30
2023-07-08T00:38:29.201Z,2.20
2023-07-08T00:41:18.006Z,2.17
2023-07-08T00:43:53.632Z,2.20
2023-07-08T00:46:39.708Z,2.20
2023-07-08T00:49:19.381Z,2.10
2023-07-08T00:51:47.097Z,2.28
2023-07-08T00:54:15.544Z,2.10
2023-07-08T00:56:59.324Z,2.15
2023-07-08T00:59:35.729Z,2.30
2023-07-08T01:02:08.857Z,2.00
2023-07-08T01:04:45.356Z,2.45
2023-07-08T01:07:13.207Z,2.20
2023-07-08T01:09:44.219Z,2.20
2023-07-08T01:12:18.693Z,2.60
2023-07-08T01:17:19.841Z,2.33
2023-07-08T01:19:50.360Z,2.35
2023-07-08T01:22:18.687Z,2.28
2023-07-08T01:24:54.987Z,2.05
2023-07-08T01:27:22.958Z,2.42
2023-07-08T01:29:52.212Z,2.25
2023-07-08T01:32:20.414Z,2.45
2023-07-08T01:35:03.244Z,2.40
2023-07-08T01:37:43.847Z,2.38
2023-07-08T01:40:20.207Z,2.40
2023-07-08T01:42:47.515Z,2.45
2023-07-08T01:45:16.987Z,2.70
2023-07-08T01:47:50.666Z,2.55
2023-07-08T01:50:19.664Z,2.55
2023-07-08T01:52:49.427Z,2.60
2023-07-08T01:55:21.904Z,2.70
2023-07-08T01:57:49.161Z,2.53
2023-07-08T02:00:16.644Z,2.55
2023-07-08T02:02:44.375Z,2.72
2023-07-08T02:05:12.143Z,2.60
2023-07-08T02:07:39.354Z,2.80
2023-07-08T02:10:07.248Z,2.80
2023-07-08T02:12:34.825Z,2.47
2023-07-08T02:15:02.809Z,2.58
2023-07-08T02:17:30.370Z,2.80
2023-07-08T02:19:57.943Z,2.83
2023-07-08T02:22:25.217Z,2.90
2023-07-08T02:24:52.477Z,3.00
2023-07-08T02:27:20.797Z,2.40
2023-07-08T02:29:48.351Z,2.55
2023-07-08T02:32:15.589Z,2.75
2023-07-08T02:34:43.831Z,2.67
2023-07-08T02:37:14.380Z,2.47
2023-07-08T02:39:41.948Z,2.42
2023-07-08T02:42:10.547Z,2.75
2023-07-08T02:44:38.528Z,2.55
2023-07-08T02:47:08.307Z,3.25
2023-07-08T02:49:36.639Z,2.67
2023-07-08T02:52:04.341Z,2.47
2023-07-08T02:54:31.619Z,2.33
2023-07-08T02:56:59.005Z,2.90
2023-07-08T02:59:28.799Z,3.00
2023-07-08T03:01:56.275Z,2.30
2023-07-08T03:04:26.257Z,2.28
2023-07-08T03:06:55.906Z,2.80
2023-07-08T03:09:24.503Z,2.67
2023-07-08T03:11:51.796Z,2.88
2023-07-08T03:14:19.117Z,2.55
2023-07-08T03:16:46.443Z,2.47
2023-07-08T03:19:16.206Z,3.58
2023-07-08T03:21:44.080Z,3.03
2023-07-08T03:24:13.751Z,2.92
2023-07-08T03:26:46.427Z,2.45
2023-07-08T03:29:19.051Z,2.75
2023-07-08T03:31:48.160Z,2.33
2023-07-08T03:34:17.623Z,3.30
2023-07-08T03:36:49.734Z,2.60
2023-07-08T03:39:23.138Z,2.63
2023-07-08T03:41:51.549Z,2.90
2023-07-08T03:44:20.260Z,2.88
2023-07-08T03:46:50.584Z,2.95
2023-07-08T03:49:23.116Z,3.33
2023-07-08T03:51:54.650Z,3.28
2023-07-08T03:54:25.692Z,3.13
2023-07-08T03:56:55.880Z,3.15
2023-07-08T03:59:25.655Z,3.33
2023-07-08T04:01:55.006Z,2.92
2023-07-08T04:04:22.980Z,3.55
2023-07-08T04:06:51.374Z,3.28
2023-07-08T04:09:18.612Z,3.40
2023-07-08T04:11:45.916Z,3.38
2023-07-08T04:14:13.243Z,3.70
2023-07-08T04:16:46.738Z,3.30
2023-07-08T04:19:15.899Z,3.03
2023-07-08T04:21:45.260Z,3.67
2023-07-08T04:24:14.822Z,3.60
2023-07-08T04:26:42.653Z,3.35
2023-07-08T04:29:17.303Z,3.15
2023-07-08T04:31:45.064Z,2.63
2023-07-08T04:34:12.340Z,2.92
2023-07-08T04:36:39.659Z,3.25
2023-07-08T04:39:08.155Z,3.13
2023-07-08T04:41:42.034Z,3.40
2023-07-08T04:44:13.113Z,3.72
2023-07-08T04:46:52.310Z,3.67
2023-07-08T04:49:20.177Z,3.38
2023-07-08T04:51:47.888Z,3.35
2023-07-08T04:54:15.563Z,3.83
2023-07-08T04:56:48.078Z,3.55
2023-07-08T04:59:20.351Z,3.72
2023-07-08T05:01:49.926Z,4.32
2023-07-08T05:04:20.203Z,3.97
2023-07-08T05:06:48.043Z,3.72
2023-07-08T05:09:17.359Z,3.58
2023-07-08T05:11:45.532Z,3.85
2023-07-08T05:14:13.867Z,3.60
2023-07-08T05:16:41.694Z,3.85
2023-07-08T05:19:09.763Z,3.50
2023-07-08T05:21:37.133Z,3.53
2023-07-08T05:24:06.037Z,3.60
2023-07-08T05:26:34.196Z,3.42
2023-07-08T05:29:01.939Z,4.13
2023-07-08T05:31:45.452Z,3.55
2023-07-08T05:34:16.637Z,4.28
2023-07-08T05:36:44.622Z,3.55
2023-07-08T05:39:11.992Z,3.00
2023-07-08T05:41:39.436Z,3.78
2023-07-08T05:44:06.716Z,3.50
2023-07-08T05:46:34.004Z,3.47
2023-07-08T05:49:02.202Z,3.35
2023-07-08T05:51:29.812Z,3.58
2023-07-08T05:53:57.123Z,3.13
2023-07-08T05:56:24.396Z,3.63
2023-07-08T05:58:51.673Z,3.83
2023-07-08T06:01:19.127Z,3.88
2023-07-08T06:03:46.496Z,3.97
2023-07-08T06:06:13.903Z,3.45
2023-07-08T06:08:42.600Z,3.70
2023-07-08T06:11:09.849Z,3.72
2023-07-08T06:13:37.208Z,3.50
2023-07-08T06:16:05.091Z,4.20
2023-07-08T06:18:32.520Z,4.13
2023-07-08T06:21:00.277Z,4.00
2023-07-08T06:23:27.968Z,3.78
2023-07-08T06:25:55.682Z,3.72
2023-07-08T06:28:23.367Z,4.07
2023-07-08T06:30:51.057Z,4.20
2023-07-08T06:33:18.435Z,3.65
2023-07-08T06:35:45.807Z,3.55
2023-07-08T06:38:13.945Z,4.18
2023-07-08T06:40:41.344Z,4.03
2023-07-08T06:43:08.681Z,4.00
2023-07-08T06:45:42.116Z,4.18
2023-07-08T06:48:09.516Z,4.60
2023-07-08T06:50:37.044Z,4.43
2023-07-08T06:53:04.316Z,4.40
2023-07-08T06:55:31.646Z,4.57
2023-07-08T06:57:58.977Z,3.60
2023-07-08T07:00:26.416Z,4.03
2023-07-08T07:02:53.769Z,3.97
2023-07-08T07:05:23.413Z,4.05
2023-07-08T07:07:51.289Z,4.00
2023-07-08T07:10:18.544Z,4.20
2023-07-08T07:12:46.192Z,4.13
2023-07-08T07:15:13.523Z,4.38
2023-07-08T07:17:40.938Z,4.25
2023-07-08T07:20:09.538Z,3.95
2023-07-08T07:22:37.013Z,4.20
2023-07-08T07:25:05.226Z,3.90
2023-07-08T07:27:32.567Z,3.75
2023-07-08T07:30:00.701Z,4.15
2023-07-08T07:32:30.355Z,4.40
2023-07-08T07:34:58.716Z,4.03
2023-07-08T07:39:53.688Z,4.30
2023-07-08T07:42:21.311Z,4.55
2023-07-08T07:44:48.679Z,3.90
2023-07-08T07:47:16.035Z,4.50
2023-07-08T07:49:43.501Z,4.13
2023-07-08T07:52:12.140Z,3.90
2023-07-08T07:54:40.549Z,4.05
2023-07-08T07:59:35.141Z,3.63
2023-07-08T08:02:02.585Z,3.35
2023-07-08T08:04:29.891Z,3.67
2023-07-08T08:06:57.197Z,4.50
2023-07-08T08:09:24.453Z,3.65
2023-07-08T08:11:53.042Z,3.55
2023-07-08T08:14:20.345Z,3.42
2023-07-08T08:16:47.749Z,3.50
2023-07-08T08:19:15.132Z,3.92
2023-07-08T08:21:42.544Z,3.88
2023-07-08T08:24:09.815Z,3.30
2023-07-08T08:26:37.238Z,3.72
2023-07-08T08:29:04.512Z,3.13
2023-07-08T08:31:35.009Z,3.20
2023-07-08T08:34:02.318Z,2.97
2023-07-08T08:36:29.629Z,3.00
2023-07-08T08:38:58.080Z,3.40
2023-07-08T08:41:33.599Z,3.88
2023-07-08T08:44:03.473Z,3.75
2023-07-08T08:46:51.367Z,3.88
2023-07-08T08:49:44.714Z,3.67
2023-07-08T08:52:12.036Z,3.58
2023-07-08T08:54:40.007Z,3.33
2023-07-08T08:57:29.657Z,3.50
2023-07-08T09:00:00.068Z,3.67
2023-07-08T09:02:54.614Z,3.72
2023-07-08T09:05:22.081Z,4.20
2023-07-08T09:08:04.856Z,3.38
2023-07-08T09:10:47.502Z,3.65
2023-07-08T09:13:38.297Z,3.50
2023-07-08T09:16:20.409Z,3.50
2023-07-08T09:19:00.698Z,3.97
2023-07-08T09:21:34.830Z,3.53
2023-07-08T09:24:09.582Z,3.72
2023-07-08T09:26:37.356Z,3.90
2023-07-08T09:29:09.951Z,3.38
2023-07-08T09:31:40.616Z,3.50
2023-07-08T09:34:14.623Z,3.25
2023-07-08T09:36:44.097Z,3.45
2023-07-08T09:39:17.988Z,3.55
2023-07-08T09:41:47.997Z,3.65
2023-07-08T09:44:31.164Z,3.53
2023-07-08T09:46:59.725Z,4.00
2023-07-08T09:49:35.588Z,3.30
2023-07-08T09:52:05.507Z,3.22
2023-07-08T09:54:33.893Z,3.30
2023-07-08T09:57:12.930Z,3.40
2023-07-08T09:59:48.647Z,3.60
2023-07-08T10:02:53.412Z,3.80
2023-07-08T10:05:23.406Z,3.30
2023-07-08T10:07:55.651Z,3.22
2023-07-08T10:10:40.422Z,3.70
2023-07-08T10:13:22.626Z,3.33
2023-07-08T10:16:26.691Z,3.47
2023-07-08T10:18:54.064Z,3.25
2023-07-08T10:21:41.535Z,3.35
2023-07-08T10:24:43.030Z,3.08
2023-07-08T10:27:26.919Z,3.50
2023-07-08T10:30:05.755Z,2.65
2023-07-08T10:32:54.446Z,2.80
2023-07-08T10:35:41.768Z,3.28
2023-07-08T10:38:31.160Z,2.97
2023-07-08T10:41:06.145Z,2.88
2023-07-08T10:43:59.858Z,3.22
2023-07-08T10:46:49.473Z,2.70
2023-07-08T10:49:28.889Z,3.47
2023-07-08T10:52:32.155Z,2.88
2023-07-08T10:55:22.046Z,2.78
2023-07-08T10:58:43.192Z,2.65
2023-07-08T11:01:34.413Z,2.80
2023-07-08T11:04:19.106Z,2.63
2023-07-08T11:06:55.963Z,3.20
2023-07-08T11:09:37.584Z,3.00
2023-07-08T11:12:18.768Z,3.80
2023-07-08T11:14:57.784Z,4.35
2023-07-08T11:17:38.840Z,4.40
2023-07-08T11:20:24.320Z,5.00
2023-07-08T11:22:59.275Z,5.93
2023-07-08T11:25:28.744Z,7.50
2023-07-08T11:27:58.768Z,12.77
2023-07-08T11:30:30.678Z,10.35
2023-07-08T11:33:05.548Z,10.93
2023-07-08T11:35:52.110Z,8.05
2023-07-08T11:38:21.914Z,5.60
2023-07-08T11:40:56.333Z,5.38
2023-07-08T11:43:27.365Z,5.15
2023-07-08T11:45:58.467Z,3.70
2023-07-08T11:48:32.896Z,3.63
2023-07-08T11:51:06.583Z,3.30
2023-07-08T11:53:48.715Z,2.95
2023-07-08T11:56:24.907Z,2.70
2023-07-08T11:59:21.091Z,2.50
2023-07-08T12:01:51.774Z,2.42
2023-07-08T12:04:27.097Z,2.03
2023-07-08T12:07:12.228Z,2.25
2023-07-08T12:09:48.363Z,2.13
2023-07-08T12:12:25.667Z,2.55
2023-07-08T12:15:03.200Z,2.70
2023-07-08T12:17:31.968Z,2.10
2023-07-08T12:20:04.725Z,2.75
2023-07-08T12:22:34.165Z,2.30
2023-07-08T12:25:06.686Z,2.67
2023-07-08T12:27:34.197Z,2.40
2023-07-08T12:30:03.924Z,2.53
2023-07-08T12:32:31.658Z,2.60
2023-07-08T12:34:59.537Z,2.70
2023-07-08T12:37:27.437Z,2.67
2023-07-08T12:42:24.277Z,2.47
2023-07-08T12:47:21.942Z,2.80
2023-07-08T12:49:50.342Z,2.53
2023-07-08T12:52:25.108Z,2.53
2023-07-08T12:54:52.977Z,2.22
2023-07-08T12:57:20.692Z,2.40
2023-07-08T12:59:48.549Z,2.80
2023-07-08T13:04:48.343Z,3.10
2023-07-08T13:07:39.492Z,2.72
2023-07-08T13:10:10.152Z,2.55
2023-07-08T13:12:41.580Z,2.50
2023-07-08T13:15:18.814Z,2.78
2023-07-08T13:17:46.711Z,3.17
2023-07-08T13:20:18.981Z,2.28
2023-07-08T13:22:53.178Z,2.42
2023-07-08T13:25:27.498Z,2.67
2023-07-08T13:28:04.246Z,2.72
2023-07-08T13:30:33.002Z,3.00
2023-07-08T13:33:01.346Z,2.60
2023-07-08T13:35:40.052Z,2.92
2023-07-08T13:38:15.562Z,2.85
2023-07-08T13:40:48.706Z,2.90
2023-07-08T13:43:17.005Z,2.67
2023-07-08T13:45:49.095Z,2.83
2023-07-08T13:48:50.746Z,2.90
2023-07-08T13:51:21.669Z,2.60
2023-07-08T13:53:52.289Z,3.10
2023-07-08T13:56:28.505Z,3.20
2023-07-08T13:59:08.822Z,2.60
2023-07-08T14:01:39.600Z,3.03
2023-07-08T14:04:08.358Z,3.40
2023-07-08T14:06:39.945Z,2.80
2023-07-08T14:09:27.520Z,3.30
2023-07-08T14:11:55.743Z,3.75
2023-07-08T14:14:23.313Z,3.45
2023-07-08T14:16:54.103Z,2.65
2023-07-08T14:19:28.333Z,3.35
2023-07-08T14:21:58.493Z,3.15
2023-07-08T14:24:26.577Z,3.17
2023-07-08T14:26:55.031Z,3.40
2023-07-08T14:29:23.264Z,2.92
2023-07-08T14:31:51.132Z,3.60
2023-07-08T14:34:25.601Z,3.60
2023-07-08T14:36:53.773Z,3.30
2023-07-08T14:39:22.268Z,3.83
2023-07-08T14:41:51.306Z,2.90
2023-07-08T14:44:31.921Z,3.63
2023-07-08T14:46:59.685Z,3.00
2023-07-08T14:49:28.589Z,3.47
2023-07-08T14:51:56.161Z,3.70
2023-07-08T14:54:23.840Z,3.80
2023-07-08T14:56:51.645Z,3.63
2023-07-08T14:59:22.135Z,3.33
2023-07-08T15:01:49.922Z,3.00
2023-07-08T15:04:19.146Z,3.15
2023-07-08T15:06:47.589Z,3.85
2023-07-08T15:09:15.264Z,3.72
2023-07-08T15:11:43.593Z,3.97
2023-07-08T15:14:27.438Z,3.30
2023-07-08T15:16:55.517Z,3.80
2023-07-08T15:19:24.905Z,3.30
2023-07-08T15:21:52.836Z,3.13
2023-07-08T15:24:20.292Z,3.65
2023-07-08T15:29:24.518Z,3.15
2023-07-08T15:31:52.435Z,2.85
2023-07-08T15:34:22.455Z,3.13
2023-07-08T15:36:50.981Z,4.07
2023-07-08T15:39:18.549Z,3.60
2023-07-08T15:41:46.143Z,3.40
2023-07-08T15:44:15.352Z,3.97
2023-07-08T15:46:49.916Z,3.10
2023-07-08T15:49:20.272Z,3.10
2023-07-08T15:51:50.119Z,3.58
2023-07-08T15:54:21.072Z,4.15
2023-07-08T15:56:52.241Z,4.55
2023-07-08T15:59:25.087Z,3.70
2023-07-08T16:01:53.369Z,3.60
2023-07-08T16:04:27.544Z,3.50
2023-07-08T16:06:55.515Z,3.72
2023-07-08T16:09:23.648Z,3.78
2023-07-08T16:11:52.129Z,3.80
2023-07-08T16:14:20.357Z,3.90
2023-07-08T16:16:48.469Z,3.55
2023-07-08T16:19:16.428Z,3.67
2023-07-08T16:21:44.268Z,4.53
2023-07-08T16:24:12.254Z,3.78
2023-07-08T16:26:40.762Z,4.28
2023-07-08T16:29:16.398Z,4.50
2023-07-08T16:31:43.928Z,4.07
2023-07-08T16:34:12.054Z,3.50
2023-07-08T16:36:39.957Z,3.60
2023-07-08T16:39:08.113Z,4.53
2023-07-08T16:41:37.424Z,3.90
2023-07-08T16:44:17.952Z,3.78
2023-07-08T16:46:45.966Z,4.20
2023-07-08T16:49:13.993Z,3.88
2023-07-08T16:51:41.905Z,4.25
2023-07-08T16:54:11.779Z,3.92
2023-07-08T16:56:41.171Z,3.80
2023-07-08T16:59:09.271Z,3.20
2023-07-08T17:01:37.037Z,4.07
2023-07-08T17:04:04.933Z,4.00
2023-07-08T17:06:32.868Z,3.67
2023-07-08T17:09:05.781Z,3.90
2023-07-08T17:11:33.636Z,4.10
2023-07-08T17:14:01.989Z,4.20
2023-07-08T17:16:34.148Z,4.53
2023-07-08T17:19:02.850Z,3.90
2023-07-08T17:21:30.359Z,3.88
2023-07-08T17:23:57.825Z,3.95
2023-07-08T17:26:25.114Z,3.83
2023-07-08T17:28:52.473Z,3.47
2023-07-08T17:33:58.181Z,3.70
2023-07-08T17:36:36.098Z,3.03
2023-07-08T17:39:07.906Z,2.67
2023-07-08T17:41:35.365Z,3.00
2023-07-08T17:44:02.721Z,2.90
2023-07-08T17:46:30.802Z,2.90
2023-07-08T17:49:00.074Z,3.20
2023-07-08T17:51:32.421Z,2.67
2023-07-08T17:53:59.832Z,2.85
2023-07-08T17:56:36.725Z,3.20
2023-07-08T17:59:05.428Z,2.72
2023-07-08T18:01:33.141Z,2.55
2023-07-08T18:04:00.586Z,3.40
2023-07-08T18:06:27.969Z,2.95
2023-07-08T18:08:55.273Z,2.83
2023-07-08T18:11:24.574Z,2.78
2023-07-08T18:13:52.999Z,2.70
2023-07-08T18:16:23.743Z,2.80
2023-07-08T18:18:51.947Z,2.67
2023-07-08T18:21:22.491Z,2.42
2023-07-08T18:23:52.922Z,2.78
2023-07-08T18:26:23.482Z,2.75
2023-07-08T18:28:51.624Z,2.70
2023-07-08T18:31:24.051Z,2.53
2023-07-08T18:33:51.867Z,3.05
2023-07-08T18:36:19.441Z,3.45
2023-07-08T18:38:47.321Z,2.95
2023-07-08T18:41:21.732Z,3.08
2023-07-08T18:43:50.236Z,3.20
2023-07-08T18:46:18.500Z,3.10
2023-07-08T18:48:46.048Z,2.83
2023-07-08T18:51:35.325Z,3.15
2023-07-08T18:54:03.056Z,3.42
2023-07-08T18:56:30.735Z,2.90
2023-07-08T18:58:58.618Z,3.00
2023-07-08T19:01:26.430Z,2.83
2023-07-08T19:03:54.816Z,3.20
2023-07-08T19:06:23.292Z,3.33
2023-07-08T19:08:50.702Z,2.90
2023-07-08T19:11:19.426Z,2.80
2023-07-08T19:13:47.286Z,2.92
2023-07-08T19:16:15.977Z,3.13
2023-07-08T19:18:44.666Z,3.13
2023-07-08T19:21:15.291Z,2.92
2023-07-08T19:23:46.675Z,3.33
2023-07-08T19:26:19.767Z,3.20
2023-07-08T19:28:47.304Z,3.13
2023-07-08T19:31:33.098Z,3.10
2023-07-08T19:34:06.450Z,2.90
2023-07-08T19:36:34.444Z,2.67
2023-07-08T19:39:02.319Z,2.88
2023-07-08T19:41:33.779Z,3.33
2023-07-08T19:44:10.109Z,2.63
2023-07-08T19:46:38.604Z,3.50
2023-07-08T19:49:05.941Z,3.00
2023-07-08T19:51:33.200Z,2.42
2023-07-08T19:54:00.577Z,2.72
2023-07-08T19:56:30.237Z,2.88
2023-07-08T19:58:57.811Z,2.60
2023-07-08T20:01:25.193Z,3.15
2023-07-08T20:03:52.760Z,2.80
2023-07-08T20:06:27.256Z,2.70
2023-07-08T20:11:23.785Z,2.90
2023-07-08T20:13:51.540Z,3.00
2023-07-08T20:16:27.397Z,3.30
2023-07-08T20:18:57.508Z,3.50
2023-07-08T20:21:26.582Z,3.08
2023-07-08T20:23:54.865Z,3.05
2023-07-08T20:26:32.738Z,3.05
2023-07-08T20:29:00.522Z,2.72
2023-07-08T20:31:31.697Z,2.85
2023-07-08T20:33:59.814Z,2.65
2023-07-08T20:36:28.428Z,3.15
2023-07-08T20:38:55.882Z,2.97
2023-07-08T20:41:23.531Z,3.28
2023-07-08T20:43:51.523Z,2.88
2023-07-08T20:46:25.263Z,2.80
2023-07-08T20:48:55.888Z,2.90
2023-07-08T20:51:25.211Z,2.80
2023-07-08T20:53:56.634Z,2.95
2023-07-08T20:56:32.603Z,3.28
2023-07-08T20:59:04.406Z,3.05
2023-07-08T21:01:33.499Z,3.13
2023-07-08T21:04:04.331Z,3.13
2023-07-08T21:06:33.748Z,3.30
2023-07-08T21:09:03.348Z,2.80
2023-07-08T21:11:31.865Z,3.20
2023-07-08T21:14:03.854Z,2.92
2023-07-08T21:16:32.325Z,3.13
2023-07-08T21:19:01.520Z,3.20
2023-07-08T21:21:29.220Z,2.72
2023-07-08T21:23:56.649Z,2.75
2023-07-08T21:26:28.723Z,2.95
2023-07-08T21:29:02.765Z,3.30
2023-07-08T21:31:31.986Z,3.83
2023-07-08T21:34:02.306Z,2.90
2023-07-08T21:36:35.032Z,3.15
2023-07-08T21:39:35.875Z,2.75
2023-07-08T21:42:05.367Z,3.13
2023-07-08T21:44:34.268Z,3.08
2023-07-08T21:47:01.936Z,3.22
2023-07-08T21:49:30.356Z,3.33
2023-07-08T21:51:58.467Z,3.05
2023-07-08T21:54:26.673Z,3.45
2023-07-08T21:56:54.140Z,3.45
2023-07-08T21:59:27.512Z,3.38
2023-07-08T22:01:56.812Z,3.63
2023-07-08T22:04:25.549Z,3.10
2023-07-08T22:06:53.697Z,3.25
2023-07-08T22:09:21.452Z,3.03
2023-07-08T22:11:50.448Z,3.22
2023-07-08T22:14:20.159Z,3.22
2023-07-08T22:17:01.290Z,3.42
2023-07-08T22:19:34.119Z,3.08
2023-07-08T22:22:02.407Z,2.95
2023-07-08T22:24:33.987Z,3.17
2023-07-08T22:27:01.692Z,2.92
2023-07-08T22:29:29.603Z,3.40
2023-07-08T22:31:58.030Z,3.60
2023-07-08T22:34:25.658Z,3.20
2023-07-08T22:36:52.988Z,3.08
2023-07-08T22:39:20.524Z,3.67
2023-07-08T22:41:53.569Z,2.85
2023-07-08T22:44:23.553Z,3.22
2023-07-08T22:46:51.019Z,3.42
2023-07-08T22:49:25.558Z,3.42
2023-07-08T22:51:56.808Z,3.17
2023-07-08T22:54:26.495Z,2.97
2023-07-08T22:56:55.612Z,3.78
2023-07-08T22:59:24.571Z,3.10
2023-07-08T23:01:52.183Z,3.33
2023-07-08T23:04:19.466Z,3.35
2023-07-08T23:06:47.896Z,3.53
2023-07-08T23:09:18.817Z,2.95
2023-07-08T23:11:46.279Z,3.30
2023-07-08T23:14:14.023Z,3.35
2023-07-08T23:16:41.385Z,3.60
2023-07-08T23:19:12.508Z,3.10
2023-07-08T23:21:40.664Z,3.80
2023-07-08T23:24:09.142Z,3.38
2023-07-08T23:29:07.127Z,3.50
2023-07-08T23:31:37.262Z,3.53
2023-07-08T23:34:07.435Z,3.45
2023-07-08T23:36:40.196Z,3.05
2023-07-08T23:39:21.667Z,3.33
2023-07-08T23:41:52.153Z,3.38
2023-07-08T23:44:21.792Z,3.72
2023-07-08T23:46:56.464Z,3.67
2023-07-08T23:49:26.628Z,3.40
2023-07-08T23:51:56.150Z,3.85
2023-07-08T23:54:35.185Z,3.90
2023-07-08T23:57:08.092Z,3.42
2023-07-08T23:59:40.501Z,3.33
